Terminal Aerodrome Forecast
Issued by NWS

Home | Current Version | Previous Version | Text Only | Print | Product List | Glossary On
Versions: 1 2 3 4 5 6 7 8 9 10 11 12 13
000
FTUS46 KPDT 130500
TAFRDM
TAF
KRDM 130521Z 1306/1406 VRB05KT P6SM BKN250
     FM131700 33007KT P6SM SCT050 BKN120
     FM132100 34008KT P6SM -TSRA SCT050 BKN080CB
     FM140300 33008KT P6SM BKN080=

USA.gov is the U.S. government's official web portal to all federal, state and local government web resources and services.